sensor_id;sensor_type;location;lat;lon;timestamp;temperature;humidity
29203;DHT22;16245;51.170;4.884;2023-02-22T00:00:36;6.80;99.90
29203;DHT22;16245;51.170;4.884;2023-02-22T00:05:35;6.50;99.90
29203;DHT22;16245;51.170;4.884;2023-02-22T00:08:05;6.40;99.90
29203;DHT22;16245;51.170;4.884;2023-02-22T00:10:34;6.50;99.90
29203;DHT22;16245;51.170;4.884;2023-02-22T00:13:04;6.50;99.90
29203;DHT22;16245;51.170;4.884;2023-02-22T00:15:31;6.30;99.90
29203;DHT22;16245;51.170;4.884;2023-02-22T00:17:58;6.10;99.90
29203;DHT22;16245;51.170;4.884;2023-02-22T00:20:24;6.20;99.90
29203;DHT22;16245;51.170;4.884;2023-02-22T00:22:50;6.30;99.90
29203;DHT22;16245;51.170;4.884;2023-02-22T00:25:22;6.20;99.90
29203;DHT22;16245;51.170;4.884;2023-02-22T00:27:48;6.20;99.90
29203;DHT22;16245;51.170;4.884;2023-02-22T00:30:22;6.20;99.90
29203;DHT22;16245;51.170;4.884;2023-02-22T00:32:50;6.40;99.90
29203;DHT22;16245;51.170;4.884;2023-02-22T00:35:17;6.50;99.90
29203;DHT22;16245;51.170;4.884;2023-02-22T00:37:47;6.60;99.90
29203;DHT22;16245;51.170;4.884;2023-02-22T00:40:25;6.60;99.90
29203;DHT22;16245;51.170;4.884;2023-02-22T00:42:51;6.70;99.90
29203;DHT22;16245;51.170;4.884;2023-02-22T00:45:22;6.70;99.90
29203;DHT22;16245;51.170;4.884;2023-02-22T00:47:48;6.50;99.90
29203;DHT22;16245;51.170;4.884;2023-02-22T00:50:18;6.50;99.90
29203;DHT22;16245;51.170;4.884;2023-02-22T00:52:44;6.50;99.90
29203;DHT22;16245;51.170;4.884;2023-02-22T00:55:16;6.50;99.90
29203;DHT22;16245;51.170;4.884;2023-02-22T00:57:42;6.50;99.90
29203;DHT22;16245;51.170;4.884;2023-02-22T01:00:13;6.50;99.90
29203;DHT22;16245;51.170;4.884;2023-02-22T01:02:40;6.10;99.90
29203;DHT22;16245;51.170;4.884;2023-02-22T01:05:10;6.10;99.90
29203;DHT22;16245;51.170;4.884;2023-02-22T01:07:39;6.20;99.90
29203;DHT22;16245;51.170;4.884;2023-02-22T01:10:07;6.40;99.90
29203;DHT22;16245;51.170;4.884;2023-02-22T01:12:34;6.40;99.90
29203;DHT22;16245;51.170;4.884;2023-02-22T01:15:02;6.50;99.90
29203;DHT22;16245;51.170;4.884;2023-02-22T01:17:28;6.60;99.90
29203;DHT22;16245;51.170;4.884;2023-02-22T01:19:54;6.50;99.90
29203;DHT22;16245;51.170;4.884;2023-02-22T01:22:20;6.20;99.90
29203;DHT22;16245;51.170;4.884;2023-02-22T01:24:47;6.10;99.90
29203;DHT22;16245;51.170;4.884;2023-02-22T01:27:13;6.00;99.90
29203;DHT22;16245;51.170;4.884;2023-02-22T01:29:39;6.00;99.90
29203;DHT22;16245;51.170;4.884;2023-02-22T01:32:05;6.10;99.90
29203;DHT22;16245;51.170;4.884;2023-02-22T01:34:31;6.00;99.90
29203;DHT22;16245;51.170;4.884;2023-02-22T01:36:58;5.60;99.90
29203;DHT22;16245;51.170;4.884;2023-02-22T01:39:24;5.60;99.90
29203;DHT22;16245;51.170;4.884;2023-02-22T01:41:50;5.60;99.90
29203;DHT22;16245;51.170;4.884;2023-02-22T01:46:56;5.50;99.90
29203;DHT22;16245;51.170;4.884;2023-02-22T01:49:31;5.50;99.90
29203;DHT22;16245;51.170;4.884;2023-02-22T01:51:59;5.50;99.90
29203;DHT22;16245;51.170;4.884;2023-02-22T01:54:31;5.50;99.90
29203;DHT22;16245;51.170;4.884;2023-02-22T01:57:11;5.50;99.90
29203;DHT22;16245;51.170;4.884;2023-02-22T01:59:40;5.60;99.90
29203;DHT22;16245;51.170;4.884;2023-02-22T02:02:07;5.60;99.90
29203;DHT22;16245;51.170;4.884;2023-02-22T02:04:34;5.60;99.90
29203;DHT22;16245;51.170;4.884;2023-02-22T02:07:03;5.50;99.90
29203;DHT22;16245;51.170;4.884;2023-02-22T02:09:46;5.40;99.90
29203;DHT22;16245;51.170;4.884;2023-02-22T02:12:15;5.20;99.90
29203;DHT22;16245;51.170;4.884;2023-02-22T02:14:42;5.40;99.90
29203;DHT22;16245;51.170;4.884;2023-02-22T02:17:13;5.30;99.90
29203;DHT22;16245;51.170;4.884;2023-02-22T02:36:09;5.70;99.90
29203;DHT22;16245;51.170;4.884;2023-02-22T02:38:49;5.70;99.90
29203;DHT22;16245;51.170;4.884;2023-02-22T02:41:33;5.80;99.90
29203;DHT22;16245;51.170;4.884;2023-02-22T02:47:00;5.90;99.90
29203;DHT22;16245;51.170;4.884;2023-02-22T02:49:35;5.90;99.90
29203;DHT22;16245;51.170;4.884;2023-02-22T02:52:03;5.70;99.90
29203;DHT22;16245;51.170;4.884;2023-02-22T02:54:30;5.70;99.90
29203;DHT22;16245;51.170;4.884;2023-02-22T02:56:56;5.50;99.90
29203;DHT22;16245;51.170;4.884;2023-02-22T02:59:33;5.60;99.90
29203;DHT22;16245;51.170;4.884;2023-02-22T03:07:22;5.60;99.90
29203;DHT22;16245;51.170;4.884;2023-02-22T03:10:09;5.60;99.90
29203;DHT22;16245;51.170;4.884;2023-02-22T03:18:00;5.50;99.90
29203;DHT22;16245;51.170;4.884;2023-02-22T03:21:12;5.40;99.90
29203;DHT22;16245;51.170;4.884;2023-02-22T03:24:02;5.40;99.90
29203;DHT22;16245;51.170;4.884;2023-02-22T03:26:34;5.40;99.90
29203;DHT22;16245;51.170;4.884;2023-02-22T03:29:00;5.40;99.90
29203;DHT22;16245;51.170;4.884;2023-02-22T03:31:33;5.50;99.90
29203;DHT22;16245;51.170;4.884;2023-02-22T03:36:38;5.70;99.90
29203;DHT22;16245;51.170;4.884;2023-02-22T03:39:09;5.70;99.90
29203;DHT22;16245;51.170;4.884;2023-02-22T03:41:38;5.60;99.90
29203;DHT22;16245;51.170;4.884;2023-02-22T03:44:08;5.40;99.90
29203;DHT22;16245;51.170;4.884;2023-02-22T03:46:38;5.30;99.90
29203;DHT22;16245;51.170;4.884;2023-02-22T03:49:15;5.30;99.90
29203;DHT22;16245;51.170;4.884;2023-02-22T03:51:45;5.20;99.90
29203;DHT22;16245;51.170;4.884;2023-02-22T03:54:11;5.10;99.90
29203;DHT22;16245;51.170;4.884;2023-02-22T03:56:59;5.20;99.90
29203;DHT22;16245;51.170;4.884;2023-02-22T03:59:26;5.30;99.90
29203;DHT22;16245;51.170;4.884;2023-02-22T04:01:53;5.20;99.90
29203;DHT22;16245;51.170;4.884;2023-02-22T04:04:19;5.20;99.90
29203;DHT22;16245;51.170;4.884;2023-02-22T04:06:46;5.30;99.90
29203;DHT22;16245;51.170;4.884;2023-02-22T04:09:13;5.40;99.90
29203;DHT22;16245;51.170;4.884;2023-02-22T04:11:39;5.50;99.90
29203;DHT22;16245;51.170;4.884;2023-02-22T04:14:04;5.40;99.90
29203;DHT22;16245;51.170;4.884;2023-02-22T04:16:30;5.40;99.90
29203;DHT22;16245;51.170;4.884;2023-02-22T04:18:56;5.50;99.90
29203;DHT22;16245;51.170;4.884;2023-02-22T04:21:21;5.40;99.90
29203;DHT22;16245;51.170;4.884;2023-02-22T04:23:47;5.30;99.90
29203;DHT22;16245;51.170;4.884;2023-02-22T04:26:13;5.10;99.90
29203;DHT22;16245;51.170;4.884;2023-02-22T04:28:39;5.10;99.90
29203;DHT22;16245;51.170;4.884;2023-02-22T04:31:05;5.10;99.90
29203;DHT22;16245;51.170;4.884;2023-02-22T04:33:30;5.20;99.90
29203;DHT22;16245;51.170;4.884;2023-02-22T04:35:56;5.10;99.90
29203;DHT22;16245;51.170;4.884;2023-02-22T04:38:25;5.00;99.90
29203;DHT22;16245;51.170;4.884;2023-02-22T04:40:52;4.90;99.90
29203;DHT22;16245;51.170;4.884;2023-02-22T04:43:18;4.90;99.90
29203;DHT22;16245;51.170;4.884;2023-02-22T04:45:44;4.90;99.90
29203;DHT22;16245;51.170;4.884;2023-02-22T04:48:10;4.90;99.90
29203;DHT22;16245;51.170;4.884;2023-02-22T04:50:35;4.90;99.90
29203;DHT22;16245;51.170;4.884;2023-02-22T04:53:01;5.00;99.90
29203;DHT22;16245;51.170;4.884;2023-02-22T04:55:27;5.00;99.90
29203;DHT22;16245;51.170;4.884;2023-02-22T04:57:54;5.10;99.90
29203;DHT22;16245;51.170;4.884;2023-02-22T05:00:20;5.00;99.90
29203;DHT22;16245;51.170;4.884;2023-02-22T05:02:47;5.10;99.90
29203;DHT22;16245;51.170;4.884;2023-02-22T05:05:15;5.00;99.90
29203;DHT22;16245;51.170;4.884;2023-02-22T05:07:41;4.80;99.90
29203;DHT22;16245;51.170;4.884;2023-02-22T05:10:08;4.90;99.90
29203;DHT22;16245;51.170;4.884;2023-02-22T05:12:34;4.90;99.90
29203;DHT22;16245;51.170;4.884;2023-02-22T05:15:00;4.90;99.90
29203;DHT22;16245;51.170;4.884;2023-02-22T05:17:26;5.10;99.90
29203;DHT22;16245;51.170;4.884;2023-02-22T05:19:52;5.20;99.90
29203;DHT22;16245;51.170;4.884;2023-02-22T05:22:18;5.20;99.90
29203;DHT22;16245;51.170;4.884;2023-02-22T05:24:43;5.20;99.90
29203;DHT22;16245;51.170;4.884;2023-02-22T05:27:09;5.20;99.90
29203;DHT22;16245;51.170;4.884;2023-02-22T05:29:36;5.10;99.90
29203;DHT22;16245;51.170;4.884;2023-02-22T05:32:03;5.00;99.90
29203;DHT22;16245;51.170;4.884;2023-02-22T05:34:29;5.00;99.90
29203;DHT22;16245;51.170;4.884;2023-02-22T05:36:55;5.10;99.90
29203;DHT22;16245;51.170;4.884;2023-02-22T05:39:21;5.10;99.90
29203;DHT22;16245;51.170;4.884;2023-02-22T05:41:46;5.20;99.90
29203;DHT22;16245;51.170;4.884;2023-02-22T05:44:12;5.20;99.90
29203;DHT22;16245;51.170;4.884;2023-02-22T05:46:38;5.30;99.90
29203;DHT22;16245;51.170;4.884;2023-02-22T05:49:04;5.30;99.90
29203;DHT22;16245;51.170;4.884;2023-02-22T05:51:29;5.20;99.90
29203;DHT22;16245;51.170;4.884;2023-02-22T05:53:55;5.10;99.90
29203;DHT22;16245;51.170;4.884;2023-02-22T05:56:26;5.10;99.90
29203;DHT22;16245;51.170;4.884;2023-02-22T05:58:52;5.10;99.90
29203;DHT22;16245;51.170;4.884;2023-02-22T06:01:19;5.00;99.90
29203;DHT22;16245;51.170;4.884;2023-02-22T06:03:48;5.00;99.90
29203;DHT22;16245;51.170;4.884;2023-02-22T06:06:15;5.00;99.90
29203;DHT22;16245;51.170;4.884;2023-02-22T06:08:42;4.90;99.90
29203;DHT22;16245;51.170;4.884;2023-02-22T06:11:08;4.70;99.90
29203;DHT22;16245;51.170;4.884;2023-02-22T06:13:35;4.90;99.90
29203;DHT22;16245;51.170;4.884;2023-02-22T06:16:01;4.90;99.90
29203;DHT22;16245;51.170;4.884;2023-02-22T06:18:27;4.90;99.90
29203;DHT22;16245;51.170;4.884;2023-02-22T06:20:58;4.80;99.90
29203;DHT22;16245;51.170;4.884;2023-02-22T06:23:25;5.00;99.90
29203;DHT22;16245;51.170;4.884;2023-02-22T06:25:50;5.00;99.90
29203;DHT22;16245;51.170;4.884;2023-02-22T06:28:16;5.00;99.90
29203;DHT22;16245;51.170;4.884;2023-02-22T06:30:42;5.10;99.90
29203;DHT22;16245;51.170;4.884;2023-02-22T06:33:08;5.20;99.90
29203;DHT22;16245;51.170;4.884;2023-02-22T06:35:34;5.20;99.90
29203;DHT22;16245;51.170;4.884;2023-02-22T06:38:00;5.20;99.90
29203;DHT22;16245;51.170;4.884;2023-02-22T06:40:25;5.20;99.90
29203;DHT22;16245;51.170;4.884;2023-02-22T06:42:55;5.10;99.90
29203;DHT22;16245;51.170;4.884;2023-02-22T06:45:22;5.00;99.90
29203;DHT22;16245;51.170;4.884;2023-02-22T06:47:47;4.90;99.90
29203;DHT22;16245;51.170;4.884;2023-02-22T06:50:22;5.00;99.90
29203;DHT22;16245;51.170;4.884;2023-02-22T06:52:48;5.00;99.90
29203;DHT22;16245;51.170;4.884;2023-02-22T06:55:21;5.00;99.90
29203;DHT22;16245;51.170;4.884;2023-02-22T06:57:47;5.00;99.90
29203;DHT22;16245;51.170;4.884;2023-02-22T07:00:15;4.90;99.90
29203;DHT22;16245;51.170;4.884;2023-02-22T07:02:41;4.80;99.90
29203;DHT22;16245;51.170;4.884;2023-02-22T07:05:09;4.90;99.90
29203;DHT22;16245;51.170;4.884;2023-02-22T07:07:37;5.00;99.90
29203;DHT22;16245;51.170;4.884;2023-02-22T07:10:04;5.00;99.90
29203;DHT22;16245;51.170;4.884;2023-02-22T07:12:30;5.10;99.90
29203;DHT22;16245;51.170;4.884;2023-02-22T07:14:56;5.20;99.90
29203;DHT22;16245;51.170;4.884;2023-02-22T07:17:21;5.30;99.90
29203;DHT22;16245;51.170;4.884;2023-02-22T07:19:47;5.40;99.90
29203;DHT22;16245;51.170;4.884;2023-02-22T07:22:13;5.50;99.90
29203;DHT22;16245;51.170;4.884;2023-02-22T07:24:38;5.50;99.90
29203;DHT22;16245;51.170;4.884;2023-02-22T07:27:05;5.40;99.90
29203;DHT22;16245;51.170;4.884;2023-02-22T07:29:31;5.30;99.90
29203;DHT22;16245;51.170;4.884;2023-02-22T07:31:57;5.20;99.90
29203;DHT22;16245;51.170;4.884;2023-02-22T07:34:23;5.30;99.90
29203;DHT22;16245;51.170;4.884;2023-02-22T07:36:49;5.40;99.90
29203;DHT22;16245;51.170;4.884;2023-02-22T07:39:15;5.60;99.90
29203;DHT22;16245;51.170;4.884;2023-02-22T07:41:40;5.60;99.90
29203;DHT22;16245;51.170;4.884;2023-02-22T07:44:06;5.70;99.90
29203;DHT22;16245;51.170;4.884;2023-02-22T07:46:31;5.80;99.90
29203;DHT22;16245;51.170;4.884;2023-02-22T07:48:58;5.90;99.90
29203;DHT22;16245;51.170;4.884;2023-02-22T07:51:24;5.90;99.90
29203;DHT22;16245;51.170;4.884;2023-02-22T07:53:49;5.90;99.90
29203;DHT22;16245;51.170;4.884;2023-02-22T07:56:15;6.00;99.90
29203;DHT22;16245;51.170;4.884;2023-02-22T07:58:42;6.10;99.90
29203;DHT22;16245;51.170;4.884;2023-02-22T08:01:08;6.20;99.90
29203;DHT22;16245;51.170;4.884;2023-02-22T08:03:35;6.40;99.90
29203;DHT22;16245;51.170;4.884;2023-02-22T08:06:03;6.50;99.90
29203;DHT22;16245;51.170;4.884;2023-02-22T08:08:29;6.70;99.90
29203;DHT22;16245;51.170;4.884;2023-02-22T08:10:55;6.80;99.90
29203;DHT22;16245;51.170;4.884;2023-02-22T08:13:22;7.10;99.90
29203;DHT22;16245;51.170;4.884;2023-02-22T08:15:50;7.30;99.90
29203;DHT22;16245;51.170;4.884;2023-02-22T08:18:18;7.50;99.90
29203;DHT22;16245;51.170;4.884;2023-02-22T08:20:45;7.60;99.90
29203;DHT22;16245;51.170;4.884;2023-02-22T08:23:13;7.60;99.90
29203;DHT22;16245;51.170;4.884;2023-02-22T08:25:39;7.90;99.90
29203;DHT22;16245;51.170;4.884;2023-02-22T08:28:06;8.00;99.90
29203;DHT22;16245;51.170;4.884;2023-02-22T08:30:33;8.20;99.90
29203;DHT22;16245;51.170;4.884;2023-02-22T08:33:01;8.50;99.90
29203;DHT22;16245;51.170;4.884;2023-02-22T08:35:28;8.80;99.90
29203;DHT22;16245;51.170;4.884;2023-02-22T08:37:56;8.60;99.90
29203;DHT22;16245;51.170;4.884;2023-02-22T08:40:25;8.50;99.90
29203;DHT22;16245;51.170;4.884;2023-02-22T08:42:52;8.70;99.90
29203;DHT22;16245;51.170;4.884;2023-02-22T08:45:18;9.00;99.90
29203;DHT22;16245;51.170;4.884;2023-02-22T08:47:44;9.10;99.90
29203;DHT22;16245;51.170;4.884;2023-02-22T08:52:44;8.50;99.90
29203;DHT22;16245;51.170;4.884;2023-02-22T08:55:09;8.60;99.90
29203;DHT22;16245;51.170;4.884;2023-02-22T08:57:35;8.80;99.90
29203;DHT22;16245;51.170;4.884;2023-02-22T09:00:02;8.90;99.90
29203;DHT22;16245;51.170;4.884;2023-02-22T09:02:28;8.70;99.90
29203;DHT22;16245;51.170;4.884;2023-02-22T09:04:53;8.70;99.90
29203;DHT22;16245;51.170;4.884;2023-02-22T09:07:19;8.80;99.90
29203;DHT22;16245;51.170;4.884;2023-02-22T09:09:45;8.90;99.90
29203;DHT22;16245;51.170;4.884;2023-02-22T09:12:12;9.10;99.90
29203;DHT22;16245;51.170;4.884;2023-02-22T09:14:37;9.30;99.90
29203;DHT22;16245;51.170;4.884;2023-02-22T09:17:03;9.40;99.90
29203;DHT22;16245;51.170;4.884;2023-02-22T09:19:29;9.40;99.90
29203;DHT22;16245;51.170;4.884;2023-02-22T09:21:56;9.50;99.90
29203;DHT22;16245;51.170;4.884;2023-02-22T09:24:23;9.40;99.90
29203;DHT22;16245;51.170;4.884;2023-02-22T09:26:49;9.50;99.90
29203;DHT22;16245;51.170;4.884;2023-02-22T09:29:22;9.50;99.90
29203;DHT22;16245;51.170;4.884;2023-02-22T09:31:50;9.60;99.90
29203;DHT22;16245;51.170;4.884;2023-02-22T09:34:18;9.70;99.90
29203;DHT22;16245;51.170;4.884;2023-02-22T09:36:45;9.90;99.90
29203;DHT22;16245;51.170;4.884;2023-02-22T09:39:13;10.00;99.90
29203;DHT22;16245;51.170;4.884;2023-02-22T09:46:56;10.30;99.90
29203;DHT22;16245;51.170;4.884;2023-02-22T09:52:24;10.40;99.90
29203;DHT22;16245;51.170;4.884;2023-02-22T09:57:38;10.30;99.90
29203;DHT22;16245;51.170;4.884;2023-02-22T10:03:02;10.10;99.90
29203;DHT22;16245;51.170;4.884;2023-02-22T10:05:41;10.20;99.90
29203;DHT22;16245;51.170;4.884;2023-02-22T10:08:16;10.20;99.90
29203;DHT22;16245;51.170;4.884;2023-02-22T10:10:46;10.30;99.90
29203;DHT22;16245;51.170;4.884;2023-02-22T10:13:43;10.40;99.90
29203;DHT22;16245;51.170;4.884;2023-02-22T10:19:23;10.50;99.90
29203;DHT22;16245;51.170;4.884;2023-02-22T10:27:18;10.40;99.90
29203;DHT22;16245;51.170;4.884;2023-02-22T10:29:58;10.60;99.90
29203;DHT22;16245;51.170;4.884;2023-02-22T10:32:48;10.70;99.90
29203;DHT22;16245;51.170;4.884;2023-02-22T10:35:27;10.70;99.90
29203;DHT22;16245;51.170;4.884;2023-02-22T10:38:39;10.70;99.90
29203;DHT22;16245;51.170;4.884;2023-02-22T10:43:42;10.80;99.90
29203;DHT22;16245;51.170;4.884;2023-02-22T10:46:12;10.80;99.90
29203;DHT22;16245;51.170;4.884;2023-02-22T10:48:40;10.60;99.90
29203;DHT22;16245;51.170;4.884;2023-02-22T10:51:08;10.60;99.90
29203;DHT22;16245;51.170;4.884;2023-02-22T10:53:36;10.70;99.90
29203;DHT22;16245;51.170;4.884;2023-02-22T10:56:23;10.60;99.90
29203;DHT22;16245;51.170;4.884;2023-02-22T11:01:37;10.70;99.90
29203;DHT22;16245;51.170;4.884;2023-02-22T11:06:40;10.70;99.90
29203;DHT22;16245;51.170;4.884;2023-02-22T11:09:17;10.70;99.90
29203;DHT22;16245;51.170;4.884;2023-02-22T11:11:45;10.80;99.90
29203;DHT22;16245;51.170;4.884;2023-02-22T11:14:23;10.90;99.90
29203;DHT22;16245;51.170;4.884;2023-02-22T11:16:51;11.10;99.90
29203;DHT22;16245;51.170;4.884;2023-02-22T11:19:20;11.10;99.90
29203;DHT22;16245;51.170;4.884;2023-02-22T11:21:50;11.20;99.90
29203;DHT22;16245;51.170;4.884;2023-02-22T11:24:19;11.30;99.90
29203;DHT22;16245;51.170;4.884;2023-02-22T11:26:58;11.50;99.90
29203;DHT22;16245;51.170;4.884;2023-02-22T11:29:28;11.70;99.90
29203;DHT22;16245;51.170;4.884;2023-02-22T11:32:11;11.80;99.90
29203;DHT22;16245;51.170;4.884;2023-02-22T11:34:40;11.80;99.90
29203;DHT22;16245;51.170;4.884;2023-02-22T11:40:21;12.10;99.90
29203;DHT22;16245;51.170;4.884;2023-02-22T11:43:06;12.30;99.90
29203;DHT22;16245;51.170;4.884;2023-02-22T11:45:37;12.40;99.90
29203;DHT22;16245;51.170;4.884;2023-02-22T11:48:05;12.60;99.90
29203;DHT22;16245;51.170;4.884;2023-02-22T11:56:00;12.70;99.90
29203;DHT22;16245;51.170;4.884;2023-02-22T12:01:19;12.60;99.90
29203;DHT22;16245;51.170;4.884;2023-02-22T12:03:52;12.60;99.90
29203;DHT22;16245;51.170;4.884;2023-02-22T12:06:50;12.60;99.90
29203;DHT22;16245;51.170;4.884;2023-02-22T12:09:40;12.50;99.90
29203;DHT22;16245;51.170;4.884;2023-02-22T12:15:17;12.50;99.90
29203;DHT22;16245;51.170;4.884;2023-02-22T12:17:56;12.50;99.90
29203;DHT22;16245;51.170;4.884;2023-02-22T12:20:35;12.50;99.90
29203;DHT22;16245;51.170;4.884;2023-02-22T12:23:06;12.60;99.90
29203;DHT22;16245;51.170;4.884;2023-02-22T12:25:45;12.50;99.90
29203;DHT22;16245;51.170;4.884;2023-02-22T12:28:20;12.50;99.90
29203;DHT22;16245;51.170;4.884;2023-02-22T12:30:55;12.40;99.90
29203;DHT22;16245;51.170;4.884;2023-02-22T12:33:29;12.50;99.90
29203;DHT22;16245;51.170;4.884;2023-02-22T12:35:57;12.60;99.90
29203;DHT22;16245;51.170;4.884;2023-02-22T12:38:40;12.50;99.90
29203;DHT22;16245;51.170;4.884;2023-02-22T12:41:29;12.50;99.90
29203;DHT22;16245;51.170;4.884;2023-02-22T12:44:07;12.40;99.90
29203;DHT22;16245;51.170;4.884;2023-02-22T12:46:43;12.30;99.90
29203;DHT22;16245;51.170;4.884;2023-02-22T12:49:27;12.30;99.90
29203;DHT22;16245;51.170;4.884;2023-02-22T12:52:09;12.40;99.90
29203;DHT22;16245;51.170;4.884;2023-02-22T12:54:58;12.40;99.90
29203;DHT22;16245;51.170;4.884;2023-02-22T13:00:43;12.40;99.90
29203;DHT22;16245;51.170;4.884;2023-02-22T13:03:31;12.50;99.90
29203;DHT22;16245;51.170;4.884;2023-02-22T13:09:16;12.50;99.90
29203;DHT22;16245;51.170;4.884;2023-02-22T13:17:41;12.50;99.90
29203;DHT22;16245;51.170;4.884;2023-02-22T13:20:29;12.50;99.90
29203;DHT22;16245;51.170;4.884;2023-02-22T13:28:38;12.40;99.90
29203;DHT22;16245;51.170;4.884;2023-02-22T13:34:05;12.50;99.90
29203;DHT22;16245;51.170;4.884;2023-02-22T13:39:55;12.40;99.90
29203;DHT22;16245;51.170;4.884;2023-02-22T13:42:50;12.40;99.90
29203;DHT22;16245;51.170;4.884;2023-02-22T13:45:37;12.40;99.90
29203;DHT22;16245;51.170;4.884;2023-02-22T13:48:30;12.40;99.90
29203;DHT22;16245;51.170;4.884;2023-02-22T13:51:04;12.60;99.90
29203;DHT22;16245;51.170;4.884;2023-02-22T13:53:54;12.50;99.90
29203;DHT22;16245;51.170;4.884;2023-02-22T13:56:23;12.60;99.90
29203;DHT22;16245;51.170;4.884;2023-02-22T13:58:57;12.50;99.90
29203;DHT22;16245;51.170;4.884;2023-02-22T14:01:43;12.50;99.90
29203;DHT22;16245;51.170;4.884;2023-02-22T14:09:47;12.80;99.90
29203;DHT22;16245;51.170;4.884;2023-02-22T14:18:01;12.70;99.90
29203;DHT22;16245;51.170;4.884;2023-02-22T14:20:29;12.60;99.90
29203;DHT22;16245;51.170;4.884;2023-02-22T14:23:23;12.60;99.90
29203;DHT22;16245;51.170;4.884;2023-02-22T14:25:42;12.60;99.90
29203;DHT22;16245;51.170;4.884;2023-02-22T14:28:36;12.60;99.90
29203;DHT22;16245;51.170;4.884;2023-02-22T14:31:08;12.50;99.90
29203;DHT22;16245;51.170;4.884;2023-02-22T14:36:43;12.40;99.90
29203;DHT22;16245;51.170;4.884;2023-02-22T14:39:35;12.50;99.90
29203;DHT22;16245;51.170;4.884;2023-02-22T14:42:23;12.50;99.90
29203;DHT22;16245;51.170;4.884;2023-02-22T14:50:49;12.70;99.90
29203;DHT22;16245;51.170;4.884;2023-02-22T14:58:40;12.70;99.90
29203;DHT22;16245;51.170;4.884;2023-02-22T15:01:36;12.50;99.90
29203;DHT22;16245;51.170;4.884;2023-02-22T15:06:47;12.50;99.90
29203;DHT22;16245;51.170;4.884;2023-02-22T15:09:15;12.60;99.90
29203;DHT22;16245;51.170;4.884;2023-02-22T15:14:27;12.50;99.90
29203;DHT22;16245;51.170;4.884;2023-02-22T15:16:58;12.60;99.90
29203;DHT22;16245;51.170;4.884;2023-02-22T15:19:31;12.50;99.90
29203;DHT22;16245;51.170;4.884;2023-02-22T15:21:59;12.40;99.90
29203;DHT22;16245;51.170;4.884;2023-02-22T15:24:32;12.30;99.90
29203;DHT22;16245;51.170;4.884;2023-02-22T15:27:09;12.20;99.90
29203;DHT22;16245;51.170;4.884;2023-02-22T15:29:40;12.20;99.90
29203;DHT22;16245;51.170;4.884;2023-02-22T15:32:36;12.30;99.90
29203;DHT22;16245;51.170;4.884;2023-02-22T15:35:18;12.20;99.90
29203;DHT22;16245;51.170;4.884;2023-02-22T15:37:46;12.20;99.90
29203;DHT22;16245;51.170;4.884;2023-02-22T15:40:15;12.20;99.90
29203;DHT22;16245;51.170;4.884;2023-02-22T15:42:47;12.20;99.90
29203;DHT22;16245;51.170;4.884;2023-02-22T15:45:21;12.20;99.90
29203;DHT22;16245;51.170;4.884;2023-02-22T15:47:50;12.10;99.90
29203;DHT22;16245;51.170;4.884;2023-02-22T15:50:29;12.00;99.90
29203;DHT22;16245;51.170;4.884;2023-02-22T15:53:03;11.90;99.90
29203;DHT22;16245;51.170;4.884;2023-02-22T15:55:41;11.90;99.90
29203;DHT22;16245;51.170;4.884;2023-02-22T16:00:44;11.80;99.90
29203;DHT22;16245;51.170;4.884;2023-02-22T16:03:13;11.80;99.90
29203;DHT22;16245;51.170;4.884;2023-02-22T16:05:51;11.70;99.90
29203;DHT22;16245;51.170;4.884;2023-02-22T16:08:25;11.70;99.90
29203;DHT22;16245;51.170;4.884;2023-02-22T16:10:59;11.70;99.90
29203;DHT22;16245;51.170;4.884;2023-02-22T16:13:27;11.80;99.90
29203;DHT22;16245;51.170;4.884;2023-02-22T16:16:03;11.70;99.90
29203;DHT22;16245;51.170;4.884;2023-02-22T16:18:34;11.70;99.90
29203;DHT22;16245;51.170;4.884;2023-02-22T16:21:03;11.70;99.90
29203;DHT22;16245;51.170;4.884;2023-02-22T16:23:30;11.60;99.90
29203;DHT22;16245;51.170;4.884;2023-02-22T16:26:21;11.60;99.90
29203;DHT22;16245;51.170;4.884;2023-02-22T16:29:06;11.60;99.90
29203;DHT22;16245;51.170;4.884;2023-02-22T16:31:37;11.50;99.90
29203;DHT22;16245;51.170;4.884;2023-02-22T16:34:05;11.40;99.90
29203;DHT22;16245;51.170;4.884;2023-02-22T16:36:42;11.30;99.90
29203;DHT22;16245;51.170;4.884;2023-02-22T16:41:59;11.20;99.90
29203;DHT22;16245;51.170;4.884;2023-02-22T16:44:26;11.20;99.90
29203;DHT22;16245;51.170;4.884;2023-02-22T16:46:56;11.20;99.90
29203;DHT22;16245;51.170;4.884;2023-02-22T16:49:22;11.20;99.90
29203;DHT22;16245;51.170;4.884;2023-02-22T16:51:48;11.30;99.90
29203;DHT22;16245;51.170;4.884;2023-02-22T16:54:28;11.30;99.90
29203;DHT22;16245;51.170;4.884;2023-02-22T16:56:55;11.30;99.90
29203;DHT22;16245;51.170;4.884;2023-02-22T16:59:22;11.30;99.90
29203;DHT22;16245;51.170;4.884;2023-02-22T17:01:48;11.30;99.90
29203;DHT22;16245;51.170;4.884;2023-02-22T17:04:21;11.30;99.90
29203;DHT22;16245;51.170;4.884;2023-02-22T17:06:48;11.30;99.90
29203;DHT22;16245;51.170;4.884;2023-02-22T17:09:14;11.10;99.90
29203;DHT22;16245;51.170;4.884;2023-02-22T17:11:40;11.10;99.90
29203;DHT22;16245;51.170;4.884;2023-02-22T17:14:07;11.00;99.90
29203;DHT22;16245;51.170;4.884;2023-02-22T17:16:32;11.00;99.90
29203;DHT22;16245;51.170;4.884;2023-02-22T17:18:58;11.10;99.90
29203;DHT22;16245;51.170;4.884;2023-02-22T17:21:24;11.10;99.90
29203;DHT22;16245;51.170;4.884;2023-02-22T17:23:50;11.20;99.90
29203;DHT22;16245;51.170;4.884;2023-02-22T17:26:16;11.30;99.90
29203;DHT22;16245;51.170;4.884;2023-02-22T17:28:42;11.40;99.90
29203;DHT22;16245;51.170;4.884;2023-02-22T17:31:23;11.20;99.90
29203;DHT22;16245;51.170;4.884;2023-02-22T17:33:51;11.10;99.90
29203;DHT22;16245;51.170;4.884;2023-02-22T17:36:17;11.00;99.90
29203;DHT22;16245;51.170;4.884;2023-02-22T17:38:42;10.90;99.90
29203;DHT22;16245;51.170;4.884;2023-02-22T17:41:08;10.90;99.90
29203;DHT22;16245;51.170;4.884;2023-02-22T17:43:34;10.90;99.90
29203;DHT22;16245;51.170;4.884;2023-02-22T17:46:00;10.90;99.90
29203;DHT22;16245;51.170;4.884;2023-02-22T17:48:32;11.00;99.90
29203;DHT22;16245;51.170;4.884;2023-02-22T17:50:58;11.10;99.90
29203;DHT22;16245;51.170;4.884;2023-02-22T17:53:23;11.20;99.90
29203;DHT22;16245;51.170;4.884;2023-02-22T17:55:49;11.10;99.90
29203;DHT22;16245;51.170;4.884;2023-02-22T17:58:16;11.00;99.90
29203;DHT22;16245;51.170;4.884;2023-02-22T18:00:45;11.00;99.90
29203;DHT22;16245;51.170;4.884;2023-02-22T18:03:14;11.00;99.90
29203;DHT22;16245;51.170;4.884;2023-02-22T18:05:46;10.90;99.90
29203;DHT22;16245;51.170;4.884;2023-02-22T18:08:13;11.00;99.90
29203;DHT22;16245;51.170;4.884;2023-02-22T18:10:40;11.00;99.90
29203;DHT22;16245;51.170;4.884;2023-02-22T18:13:12;11.00;99.90
29203;DHT22;16245;51.170;4.884;2023-02-22T18:15:39;11.10;99.90
29203;DHT22;16245;51.170;4.884;2023-02-22T18:18:05;11.00;99.90
29203;DHT22;16245;51.170;4.884;2023-02-22T18:20:31;10.90;99.90
29203;DHT22;16245;51.170;4.884;2023-02-22T18:23:06;10.90;99.90
29203;DHT22;16245;51.170;4.884;2023-02-22T18:25:37;10.80;99.90